Flight Track Log - Related Links

Times and Time Zones

All times are in EDT time to prevent confusion due to time zone crossing. See the TRS398 flight status page for this flight to view local times or setup timezone preferences in your user account.

Time Position Orientation Groundspeed Altitude Reporting Facility
EDT Latitude Longitude Course Direction KTS MPH feet Rate Location/Type
Tue 02:40:44 PM 28.4500 -81.3000 16° North 187 215 800  Level Orlando TRACON
Tue 02:41:45 PM 28.5000 -81.2833 16° North 233 268 2,500 1,736 Climbing Orlando TRACON
Tue 02:42:45 PM 28.5667 -81.2667 12° North 265 305 4,300 2,050 Climbing Orlando TRACON
Tue 02:43:45 PM 28.6333 -81.2833 348° North 276 318 6,600 1,970 Climbing Orlando TRACON
Tue 02:46:03 PM 28.7694 -81.4075 321° Northwest 292 336 10,800 1,576 Climbing Jacksonville Center
Tue 02:47:03 PM 28.8475 -81.4681 326° Northwest 306 352 11,800 1,350 Climbing Jacksonville Center
Tue 02:48:03 PM 28.9294 -81.5308 326° Northwest 331 381 13,500 1,700 Climbing Jacksonville Center
Tue 02:49:03 PM 29.0239 -81.5722 339° North 346 398 15,200 1,750 Climbing Jacksonville Center
Tue 02:50:03 PM 29.1244 -81.5994 347° North 362 417 17,000 1,550 Climbing Jacksonville Center
Tue 02:51:03 PM 29.2372 -81.6336 345° North 368 423 18,300 1,500 Climbing Jacksonville Center
Tue 02:52:03 PM 29.3442 -81.6586 348° North 379 436 20,000 1,550 Climbing Jacksonville Center
Tue 02:53:03 PM 29.4550 -81.6881 347° North 391 450 21,400 1,450 Climbing Jacksonville Center
Tue 02:54:03 PM 29.5700 -81.7178 347° North 405 466 22,900 1,500 Climbing Jacksonville Center
Tue 02:55:03 PM 29.6831 -81.7500 346° North 415 478 24,400 1,450 Climbing Jacksonville Center
Tue 02:56:03 PM 29.8003 -81.7819 347° North 415 478 25,800 1,300 Climbing Jacksonville Center
Tue 02:57:03 PM 29.9175 -81.8142 347° North 420 483 27,000 1,100 Climbing Jacksonville Center
Tue 02:58:03 PM 30.0367 -81.8417 349° North 426 490 28,000 1,050 Climbing Jacksonville Center
Tue 02:59:03 PM 30.1581 -81.8739 347° North 431 496 29,100 1,300 Climbing Jacksonville Center
Tue 03:00:03 PM 30.2731 -81.9136 343° North 436 502 30,600 950 Climbing Jacksonville Center
Tue 03:01:03 PM 30.3883 -81.9583 341° North 431 496 31,000 200 Climbing Jacksonville Center
Tue 03:02:03 PM 30.5094 -81.9642 358° North 444 511 31,000  Level Jacksonville Center
Tue 03:03:03 PM 30.6181 -81.9633 360° North 438 504 31,000  Level Jacksonville Center
Tue 03:04:03 PM 30.7411 -81.9428 North 438 504 31,000 -50 Level Jacksonville Center
Tue 03:05:03 PM 30.8600 -81.9244 North 438 504 30,900  Descending Jacksonville Center
Tue 03:06:03 PM 30.9811 -81.9331 357° North 438 504 31,000 50 Climbing Jacksonville Center
Tue 03:07:03 PM 31.0922 -81.9853 338° Northwest 428 493 31,000  Level Jacksonville Center
Tue 03:08:03 PM 31.2033 -82.0375 338° Northwest 428 493 31,000  Level Jacksonville Center
Tue 03:09:03 PM 31.3122 -82.0900 338° Northwest 428 493 31,000 -50 Level Jacksonville Center
Tue 03:10:03 PM 31.4231 -82.1428 338° Northwest 428 493 30,900  Descending Jacksonville Center
Tue 03:11:03 PM 31.5319 -82.1931 339° North 423 487 31,000 50 Climbing Jacksonville Center
Tue 03:12:04 PM 31.6428 -82.2433 339° North 418 481 31,000 450 Level Jacksonville Center
Tue 03:13:03 PM 31.7497 -82.2939 338° Northwest 417 480 31,900 612 Climbing Jacksonville Center
Tue 03:15:20 PM 32.0136 -82.4172 338° Northwest 420 483 33,000 335 Climbing Atlanta Center
Tue 03:16:20 PM 32.1269 -82.4717 338° Northwest 426 490 33,000 50 Level Atlanta Center
Tue 03:17:20 PM 32.2403 -82.5261 338° Northwest 426 490 33,100 500 Climbing Atlanta Center
Tue 03:18:20 PM 32.3350 -82.5786 335° Northwest 426 490 34,000 450 Climbing Atlanta Center
Tue 03:19:20 PM 32.4586 -82.6333 340° North 421 484 34,000  Level Atlanta Center
Tue 03:20:20 PM 32.5531 -82.6761 339° North 421 484 34,000  Level Atlanta Center
Tue 03:21:20 PM 32.6622 -82.7311 337° Northwest 421 484 34,000  Level Atlanta Center
Tue 03:22:20 PM 32.7714 -82.7864 337° Northwest 421 484 34,000  Level Atlanta Center
Tue 03:23:20 PM 32.8847 -82.8417 338° Northwest 421 484 34,000  Level Atlanta Center
Tue 03:24:20 PM 32.9936 -82.8947 338° Northwest 421 484 34,000  Level Atlanta Center
Tue 03:25:20 PM 33.1153 -82.9550 337° Northwest 421 484 34,000  Level Atlanta Center
Tue 03:26:20 PM 33.2139 -83.0033 338° Northwest 427 491 34,000  Level Atlanta Center
Tue 03:27:20 PM 33.3228 -83.0544 339° North 422 486 34,000  Level Atlanta Center
Tue 03:28:20 PM 33.4317 -83.1103 337° Northwest 417 480 34,000  Level Atlanta Center
Tue 03:29:20 PM 33.5428 -83.1614 339° North 424 488 34,000  Level Atlanta Center
Tue 03:30:20 PM 33.6494 -83.2178 336° Northwest 419 482 34,000  Level Atlanta Center
Tue 03:31:20 PM 33.7583 -83.2717 338° Northwest 419 482 34,000  Level Atlanta Center
Tue 03:32:20 PM 33.8653 -83.3233 338° Northwest 414 476 34,000  Level Atlanta Center
Tue 03:33:20 PM 33.9742 -83.3800 337° Northwest 422 486 34,000  Level Atlanta Center
Tue 03:34:20 PM 34.0933 -83.4417 337° Northwest 416 479 34,000  Level Atlanta Center
Tue 03:35:20 PM 34.2000 -83.4939 338° Northwest 421 484 34,000  Level Atlanta Center
Tue 03:36:20 PM 34.3067 -83.5483 337° Northwest 416 479 34,000  Level Atlanta Center
Tue 03:37:20 PM 34.4133 -83.6031 337° Northwest 416 479 34,000  Level Atlanta Center
Tue 03:38:20 PM 34.5219 -83.6581 337° Northwest 416 479 34,000  Level Atlanta Center
Tue 03:39:20 PM 34.6286 -83.7106 338° Northwest 416 479 34,000  Level Atlanta Center
Tue 03:40:20 PM 34.7353 -83.7633 338° Northwest 416 479 34,000  Level Atlanta Center
Tue 03:41:20 PM 34.8417 -83.8211 336° Northwest 416 479 34,000  Level Atlanta Center
Tue 03:42:20 PM 34.9461 -83.8792 336° Northwest 411 473 34,000  Level Atlanta Center
Tue 03:43:20 PM 35.0528 -83.9322 338° Northwest 411 473 34,000  Level Atlanta Center
Tue 03:44:20 PM 35.1592 -83.9906 336° Northwest 417 480 34,000  Level Atlanta Center
Tue 03:45:20 PM 35.2508 -84.0769 322° Northwest 412 474 34,000  Level Atlanta Center
Tue 03:46:20 PM 35.3428 -84.1661 322° Northwest 417 480 34,000  Level Atlanta Center
Tue 03:47:20 PM 35.4344 -84.2553 322° Northwest 417 480 34,000  Level Atlanta Center
Tue 03:48:20 PM 35.5261 -84.3397 323° Northwest 417 480 34,000  Level Atlanta Center
Tue 03:49:20 PM 35.6175 -84.4297 321° Northwest 417 480 34,000  Level Atlanta Center
Tue 03:50:20 PM 35.7069 -84.5169 322° Northwest 417 480 34,000  Level Atlanta Center
Tue 03:51:20 PM 35.7961 -84.6044 321° Northwest 417 480 34,000  Level Atlanta Center
Tue 03:53:41 PM 36.0311 -84.7697 330° Northwest 416 479 34,000  Level Indianapolis Center
Tue 03:54:43 PM 36.1375 -84.8211 339° North 413 475 34,000  Level Indianapolis Center
Tue 03:55:45 PM 36.2453 -84.8725 339° North 417 480 34,000  Level Indianapolis Center
Tue 03:56:47 PM 36.3544 -84.9244 339° North 421 484 34,000  Level Indianapolis Center
Tue 03:57:49 PM 36.4622 -84.9761 339° North 416 479 34,000  Level Indianapolis Center
Tue 03:58:51 PM 36.5919 -85.0381 339° North 417 480 34,000  Level Indianapolis Center
Tue 03:59:53 PM 36.6986 -85.0906 338° Northwest 412 474 34,000  Level Indianapolis Center
Tue 04:00:55 PM 36.8058 -85.1425 339° North 413 475 34,000  Level Indianapolis Center
Tue 04:01:57 PM 36.9119 -85.1942 339° North 407 468 34,000  Level Indianapolis Center
Tue 04:02:59 PM 37.0206 -85.2461 339° North 416 479 34,000  Level Indianapolis Center
Tue 04:04:01 PM 37.1433 -85.3075 338° Northwest 413 475 34,000  Level Indianapolis Center
Tue 04:05:03 PM 37.2525 -85.3600 339° North 417 480 34,000  Level Indianapolis Center
Tue 04:06:06 PM 37.3597 -85.4133 338° Northwest 416 479 34,000  Level Indianapolis Center
Tue 04:07:08 PM 37.4656 -85.4650 339° North 409 471 34,000  Level Indianapolis Center
Tue 04:08:10 PM 37.5719 -85.5197 338° Northwest 412 474 34,000  Level Indianapolis Center
Tue 04:09:12 PM 37.6964 -85.5789 339° North 419 482 34,000  Level Indianapolis Center
Tue 04:10:14 PM 37.8022 -85.6319 338° Northwest 413 475 34,000  Level Indianapolis Center
Tue 04:11:16 PM 37.9086 -85.6856 338° Northwest 410 472 34,000  Level Indianapolis Center
Tue 04:12:18 PM 38.0153 -85.7397 338° Northwest 412 474 34,000  Level Indianapolis Center
Tue 04:13:20 PM 38.1222 -85.7933 338° Northwest 413 475 34,000  Level Indianapolis Center
Tue 04:14:22 PM 38.2281 -85.8450 339° North 409 471 34,000  Level Indianapolis Center
Tue 04:15:24 PM 38.3650 -85.8733 351° North 415 478 34,000  Level Indianapolis Center
Tue 04:16:26 PM 38.4803 -85.8989 350° North 418 481 34,000  Level Indianapolis Center
Tue 04:17:28 PM 38.5933 -85.9219 351° North 414 476 34,000  Level Indianapolis Center
Tue 04:18:30 PM 38.7069 -85.9450 351° North 414 476 34,000  Level Indianapolis Center
Tue 04:19:32 PM 38.8219 -85.9686 351° North 417 480 34,000  Level Indianapolis Center
Tue 04:20:34 PM 38.9331 -86.0064 345° North 413 475 34,000  Level Indianapolis Center
Tue 04:21:36 PM 39.0669 -86.0506 346° North 414 476 34,000  Level Indianapolis Center
Tue 04:22:38 PM 39.1775 -86.0881 345° North 412 474 34,000  Level Indianapolis Center
Tue 04:23:40 PM 39.2881 -86.1250 345° North 410 472 34,000  Level Indianapolis Center
Tue 04:24:43 PM 39.3992 -86.1631 345° North 412 474 34,000  Level Indianapolis Center
Tue 04:25:45 PM 39.5094 -86.2003 345° North 410 472 34,000  Level Indianapolis Center
Tue 04:26:47 PM 39.6211 -86.2389 345° North 412 474 34,000  Level Indianapolis Center
Tue 04:27:49 PM 39.7308 -86.2764 345° North 408 470 34,000  Level Indianapolis Center
Tue 04:28:51 PM 39.8631 -86.3225 345° North 409 471 34,000  Level Indianapolis Center
Tue 04:29:42 PM 39.9436 -86.3511 345° North 411 473 34,000 -159 Level Chicago Center
Tue 04:30:44 PM 40.0542 -86.3883 346° North 411 473 33,700 -726 Descending Chicago Center
Tue 04:31:46 PM 40.1881 -86.4344 345° North 415 478 32,500 -823 Descending Chicago Center
Tue 04:32:48 PM 40.2983 -86.4744 345° North 412 474 32,000 -242 Descending Chicago Center
Tue 04:33:50 PM 40.4100 -86.5117 346° North 411 473 32,000  Level Chicago Center
Tue 04:34:52 PM 40.5208 -86.5514 345° North 411 473 32,000  Level Chicago Center
Tue 04:35:54 PM 40.6300 -86.5900 345° North 406 467 32,000  Level Chicago Center
Tue 04:36:56 PM 40.7414 -86.6300 345° North 413 475 32,000  Level Chicago Center
Tue 04:37:58 PM 40.8514 -86.6703 345° North 411 473 32,000  Level Chicago Center
Tue 04:39:00 PM 40.9839 -86.7169 345° North 410 472 32,000  Level Chicago Center
Tue 04:40:02 PM 41.1008 -86.7603 344° North 409 471 32,000  Level Chicago Center
Tue 04:41:04 PM 41.2086 -86.7986 345° North 405 466 32,000 -97 Level Chicago Center
Tue 04:42:06 PM 41.3164 -86.8367 345° North 404 465 31,800 -576 Descending Chicago Center
Tue 04:43:09 PM 41.4244 -86.8767 344° North 406 467 30,800 -2,160 Descending Chicago Center
Tue 04:44:11 PM 41.5331 -86.9167 345° North 408 470 27,300 -2,419 Descending Chicago Center
Tue 04:45:13 PM 41.6628 -86.9622 345° North 406 467 25,800 -1,597 Descending Chicago Center
Tue 04:46:15 PM 41.7650 -87.0011 344° North 393 452 24,000 -871 Descending Chicago Center
Tue 04:47:17 PM 41.8636 -87.0381 344° North 378 435 24,000 -532 Level Chicago Center
Tue 04:48:19 PM 41.9647 -87.0753 345° North 378 435 22,900 -1,016 Descending Chicago Center
Tue 04:49:21 PM 42.0619 -87.1117 344° North 371 427 21,900 -1,403 Descending Chicago Center
Tue 04:50:23 PM 42.1789 -87.1528 345° North 366 421 20,000 -1,113 Descending Chicago Center
Tue 04:51:25 PM 42.2756 -87.1897 344° North 364 419 19,600 -1,355 Descending Chicago Center
Tue 04:52:27 PM 42.3664 -87.2236 345° North 347 399 17,200 -2,274 Descending Chicago Center
Tue 04:53:29 PM 42.4572 -87.2581 344° North 334 384 14,900 -2,226 Descending Chicago Center
Tue 04:54:31 PM 42.5436 -87.2625 358° North 314 361 12,600 -1,403 Descending Chicago Center
Tue 04:55:33 PM 42.6222 -87.2864 347° North 309 356 12,000 -480 Descending Chicago Center
Tue 04:56:36 PM 42.6750 -87.3875 305° West 300 345 11,600 -960 Descending Chicago Center
Tue 04:57:38 PM 42.7228 -87.4811 305° West 298 343 10,000 -1,500 Descending Chicago Center
Tue 04:58:40 PM 42.7717 -87.5794 304° West 267 307 8,500 -1,452 Descending Chicago Center
Tue 04:59:42 PM 42.8136 -87.6608 305° West 261 300 7,000 -726 Descending Chicago Center
Tue 05:00:44 PM 42.8531 -87.7439 303° West 261 300 7,000  Level Chicago Center
Tue 05:01:46 PM 42.8872 -87.8150 303° West 229 264 7,000 -48 Level Chicago Center
Tue 05:02:48 PM 42.8889 -87.8950 272° West 232 267 6,900 -1,016 Descending Chicago Center
Tue 05:03:50 PM 42.8550 -87.9869 243° Southwest 231 266 4,900 -1,935 Descending Chicago Center
Tue 05:04:52 PM 42.8431 -88.0594 257° West 222 255 2,900 -1,065 Descending Chicago Center
Tue 05:05:54 PM 42.8919 -88.0558 North 208 239 2,700 -439 Descending Chicago Center
Tue 05:06:55 PM 42.9167 -88.0000 59° Northeast 164 189 2,000 -694 Descending KMKE
Tue 05:07:55 PM 42.9333 -87.9500 66° East 128 147 1,300 -700 Descending KMKE
Tue 05:09:00 PM 42.9469 -87.8971 41° Northeast  Level Estimated
Tue 05:16:00 PM 42.9469 -87.8971 41° Northeast  Level Estimated

Login

Don't have an account? Register now (free) for customized features, flight alerts, and more!